createdAt,value
2022-10-28T00:01:37.087Z,2.10
2022-10-28T00:04:06.066Z,2.00
2022-10-28T00:06:36.657Z,2.47
2022-10-28T00:09:08.345Z,2.57
2022-10-28T00:11:41.579Z,2.80
2022-10-28T00:14:11.701Z,2.43
2022-10-28T00:16:40.395Z,2.33
2022-10-28T00:19:11.739Z,2.87
2022-10-28T00:21:42.693Z,1.90
2022-10-28T00:24:12.639Z,2.63
2022-10-28T00:26:44.056Z,2.70
2022-10-28T00:29:15.522Z,2.87
2022-10-28T00:31:45.131Z,2.63
2022-10-28T00:34:15.375Z,2.60
2022-10-28T00:36:46.309Z,2.87
2022-10-28T00:39:16.487Z,2.87
2022-10-28T00:41:48.702Z,2.50
2022-10-28T00:44:48.319Z,2.30
2022-10-28T00:47:22.541Z,3.00
2022-10-28T00:49:53.685Z,2.60
2022-10-28T00:52:25.693Z,2.47
2022-10-28T00:54:55.286Z,2.40
2022-10-28T00:57:30.829Z,2.33
2022-10-28T01:00:01.928Z,2.10
2022-10-28T01:02:30.782Z,2.53
2022-10-28T01:04:59.685Z,2.63
2022-10-28T01:07:28.635Z,2.20
2022-10-28T01:09:57.509Z,2.83
2022-10-28T01:12:34.833Z,2.60
2022-10-28T01:15:11.965Z,3.57
2022-10-28T01:17:54.196Z,2.37
2022-10-28T01:20:48.295Z,1.93
2022-10-28T01:23:24.449Z,1.77
2022-10-28T01:26:24.789Z,1.73
2022-10-28T01:29:34.817Z,2.10
2022-10-28T01:32:12.498Z,2.20
2022-10-28T01:34:52.494Z,2.20
2022-10-28T01:37:30.975Z,2.07
2022-10-28T01:40:06.402Z,1.60
2022-10-28T01:42:42.942Z,1.60
2022-10-28T01:45:17.442Z,1.50
2022-10-28T01:47:53.513Z,1.60
2022-10-28T01:50:27.028Z,1.60
2022-10-28T01:52:58.574Z,1.50
2022-10-28T01:55:30.971Z,1.90
2022-10-28T01:58:02.050Z,1.40
2022-10-28T02:00:32.575Z,1.80
2022-10-28T02:03:02.759Z,2.33
2022-10-28T02:05:42.230Z,1.40
2022-10-28T02:08:30.108Z,1.23
2022-10-28T02:11:11.914Z,1.57
2022-10-28T02:13:48.535Z,1.63
2022-10-28T02:16:26.299Z,1.60
2022-10-28T02:19:04.426Z,2.00
2022-10-28T02:21:45.362Z,1.40
2022-10-28T02:24:21.307Z,1.20
2022-10-28T02:26:56.213Z,1.43
2022-10-28T02:29:32.129Z,1.20
2022-10-28T02:32:05.024Z,1.30
2022-10-28T02:34:40.455Z,2.00
2022-10-28T02:37:15.743Z,1.13
2022-10-28T02:39:47.961Z,1.13
2022-10-28T02:42:21.777Z,1.30
2022-10-28T02:44:56.298Z,1.30
2022-10-28T02:47:28.978Z,1.40
2022-10-28T02:50:02.031Z,1.97
2022-10-28T02:52:32.562Z,1.47
2022-10-28T02:55:04.745Z,1.87
2022-10-28T02:57:35.972Z,1.23
2022-10-28T03:00:09.638Z,2.60
2022-10-28T03:02:38.758Z,1.53
2022-10-28T03:05:09.559Z,1.10
2022-10-28T03:07:38.244Z,1.30
2022-10-28T03:10:07.713Z,1.40
2022-10-28T03:12:36.417Z,1.20
2022-10-28T03:15:05.919Z,1.10
2022-10-28T03:17:34.597Z,1.00
2022-10-28T03:20:03.206Z,1.40
2022-10-28T03:22:33.247Z,1.27
2022-10-28T03:25:01.885Z,1.17
2022-10-28T03:27:30.514Z,1.10
2022-10-28T03:29:59.156Z,2.07
2022-10-28T03:32:27.881Z,1.40
2022-10-28T03:34:56.511Z,1.43
2022-10-28T03:37:25.313Z,1.00
2022-10-28T03:39:55.412Z,1.20
2022-10-28T03:42:24.133Z,3.60
2022-10-28T03:44:52.767Z,3.20
2022-10-28T03:47:22.335Z,1.30
2022-10-28T03:49:50.931Z,1.20
2022-10-28T03:52:19.638Z,1.57
2022-10-28T03:54:48.392Z,1.90
2022-10-28T03:57:18.614Z,1.20
2022-10-28T03:59:47.257Z,1.23
2022-10-28T04:02:16.063Z,1.40
2022-10-28T04:04:45.077Z,1.60
2022-10-28T04:07:13.653Z,1.60
2022-10-28T04:09:42.832Z,1.80
2022-10-28T04:12:12.295Z,1.70
2022-10-28T04:14:42.352Z,1.70
2022-10-28T04:17:11.019Z,1.40
2022-10-28T04:19:39.671Z,1.50
2022-10-28T04:22:09.258Z,1.20
2022-10-28T04:24:39.350Z,1.40
2022-10-28T04:27:08.220Z,1.13
2022-10-28T04:29:36.898Z,1.20
2022-10-28T04:32:07.089Z,1.30
2022-10-28T04:34:35.711Z,1.77
2022-10-28T04:37:04.316Z,2.20
2022-10-28T04:39:32.993Z,2.03
2022-10-28T04:42:01.677Z,5.50
2022-10-28T04:44:30.317Z,3.90
2022-10-28T04:46:59.084Z,2.93
2022-10-28T04:49:29.315Z,1.93
2022-10-28T04:51:58.015Z,1.70
2022-10-28T04:54:27.931Z,2.17
2022-10-28T04:56:57.410Z,1.83
2022-10-28T04:59:26.116Z,1.83
2022-10-28T05:01:54.849Z,1.73
2022-10-28T05:04:23.563Z,2.73
2022-10-28T05:06:53.626Z,1.80
2022-10-28T05:09:22.267Z,1.40
2022-10-28T05:11:50.902Z,1.63
2022-10-28T05:14:19.531Z,1.53
2022-10-28T05:16:48.753Z,1.53
2022-10-28T05:19:17.427Z,2.00
2022-10-28T05:21:46.087Z,3.77
2022-10-28T05:24:16.187Z,2.97
2022-10-28T05:26:46.934Z,2.60
2022-10-28T05:29:15.582Z,1.93
2022-10-28T05:31:44.235Z,2.27
2022-10-28T05:34:12.946Z,2.03
2022-10-28T05:36:41.571Z,2.40
2022-10-28T05:39:10.213Z,2.67
2022-10-28T05:41:40.266Z,3.87
2022-10-28T05:44:08.961Z,2.20
2022-10-28T05:46:37.640Z,2.80
2022-10-28T05:49:06.390Z,3.37
2022-10-28T05:51:35.047Z,3.27
2022-10-28T05:54:03.667Z,3.37
2022-10-28T05:56:32.299Z,3.60
2022-10-28T05:59:02.366Z,3.70
2022-10-28T06:01:31.078Z,3.07
2022-10-28T06:03:59.817Z,3.43
2022-10-28T06:06:30.830Z,5.07
2022-10-28T06:09:02.256Z,5.87
2022-10-28T06:11:30.212Z,3.30
2022-10-28T06:14:00.255Z,4.07
2022-10-28T06:16:28.964Z,4.53
2022-10-28T06:18:57.640Z,4.47
2022-10-28T06:21:26.314Z,4.73
2022-10-28T06:23:54.993Z,4.13
2022-10-28T06:26:23.683Z,3.67
2022-10-28T06:28:52.334Z,4.63
2022-10-28T06:31:24.752Z,3.47
2022-10-28T06:33:53.419Z,3.90
2022-10-28T06:36:22.025Z,3.77
2022-10-28T06:38:53.094Z,4.13
2022-10-28T06:41:21.782Z,4.83
2022-10-28T06:43:50.442Z,3.30
2022-10-28T06:46:19.222Z,2.80
2022-10-28T06:48:50.799Z,3.10
2022-10-28T06:51:19.469Z,4.43
2022-10-28T06:53:50.517Z,4.30
2022-10-28T06:56:19.559Z,5.37
2022-10-28T06:58:52.135Z,4.30
2022-10-28T07:01:21.549Z,4.70
2022-10-28T07:03:51.862Z,6.17
2022-10-28T07:06:21.370Z,5.33
2022-10-28T07:08:50.015Z,5.73
2022-10-28T07:11:19.110Z,4.53
2022-10-28T07:13:49.001Z,4.27
2022-10-28T07:16:17.876Z,4.73
2022-10-28T07:18:46.529Z,5.67
2022-10-28T07:21:18.486Z,6.23
2022-10-28T07:23:48.586Z,5.40
2022-10-28T07:26:17.242Z,3.40
2022-10-28T07:28:45.922Z,5.67
2022-10-28T07:31:14.635Z,4.77
2022-10-28T07:33:44.413Z,4.73
2022-10-28T07:36:13.502Z,4.00
2022-10-28T07:38:43.631Z,4.70
2022-10-28T07:41:12.504Z,4.53
2022-10-28T07:43:41.300Z,4.83
2022-10-28T07:46:09.967Z,7.43
2022-10-28T07:48:39.509Z,5.73
2022-10-28T07:51:09.596Z,4.70
2022-10-28T07:53:38.316Z,6.33
2022-10-28T07:56:10.396Z,8.50
2022-10-28T07:58:39.080Z,5.47
2022-10-28T08:01:09.694Z,6.87
2022-10-28T08:03:39.359Z,6.77
2022-10-28T08:06:10.469Z,6.37
2022-10-28T08:08:39.708Z,7.57
2022-10-28T08:11:12.998Z,6.03
2022-10-28T08:13:42.634Z,6.83
2022-10-28T08:16:11.436Z,6.57
2022-10-28T08:18:40.721Z,5.93
2022-10-28T08:21:11.184Z,5.77
2022-10-28T08:23:40.167Z,8.80
2022-10-28T08:26:09.569Z,5.97
2022-10-28T08:28:39.906Z,5.27
2022-10-28T08:31:10.299Z,4.30
2022-10-28T08:33:40.168Z,8.13
2022-10-28T08:36:10.984Z,3.90
2022-10-28T08:38:44.985Z,3.50
2022-10-28T08:41:28.365Z,3.20
2022-10-28T08:44:27.323Z,3.13
2022-10-28T08:47:09.454Z,3.13
2022-10-28T08:49:43.429Z,3.33
2022-10-28T08:52:26.105Z,3.60
2022-10-28T08:55:01.751Z,2.90
2022-10-28T08:57:37.889Z,3.83
2022-10-28T09:00:14.899Z,3.47
2022-10-28T09:02:53.705Z,3.13
2022-10-28T09:05:24.014Z,2.77
2022-10-28T09:07:53.629Z,2.53
2022-10-28T09:10:41.633Z,2.90
2022-10-28T09:13:18.447Z,2.97
2022-10-28T09:15:55.524Z,2.90
2022-10-28T09:18:43.931Z,3.03
2022-10-28T09:21:20.577Z,2.60
2022-10-28T09:23:56.825Z,4.60
2022-10-28T09:26:38.884Z,3.33
2022-10-28T09:29:28.025Z,3.93
2022-10-28T09:32:05.188Z,18.10
2022-10-28T09:34:41.176Z,5.77
2022-10-28T09:37:17.367Z,5.77
2022-10-28T09:39:49.341Z,5.77
2022-10-28T09:42:22.436Z,2.87
2022-10-28T09:44:55.435Z,3.80
2022-10-28T09:47:30.897Z,5.60
2022-10-28T09:50:03.112Z,3.23
2022-10-28T09:52:36.112Z,4.20
2022-10-28T09:55:10.575Z,3.23
2022-10-28T09:57:39.295Z,2.53
2022-10-28T10:00:09.312Z,3.10
2022-10-28T10:02:40.512Z,3.40
2022-10-28T10:05:16.973Z,2.80
2022-10-28T10:07:51.242Z,2.57
2022-10-28T10:10:25.725Z,3.17
2022-10-28T10:12:58.850Z,3.00
2022-10-28T10:15:33.450Z,2.90
2022-10-28T10:18:06.884Z,2.73
2022-10-28T10:20:49.247Z,2.33
2022-10-28T10:23:28.374Z,2.53
2022-10-28T10:26:00.273Z,3.60
2022-10-28T10:28:29.969Z,3.50
2022-10-28T10:31:00.160Z,2.87
2022-10-28T10:33:33.474Z,2.97
2022-10-28T10:36:06.043Z,2.70
2022-10-28T10:38:35.457Z,2.43
2022-10-28T10:41:04.723Z,3.37
2022-10-28T10:43:34.758Z,2.53
2022-10-28T10:46:06.088Z,3.17
2022-10-28T10:48:37.198Z,3.30
2022-10-28T10:51:13.890Z,4.23
2022-10-28T10:53:42.875Z,2.70
2022-10-28T10:56:13.277Z,3.63
2022-10-28T10:58:50.297Z,3.10
2022-10-28T11:01:22.732Z,3.10
2022-10-28T11:06:32.662Z,3.70
2022-10-28T11:09:04.904Z,3.90
2022-10-28T11:11:36.297Z,3.03
2022-10-28T11:14:08.776Z,2.77
2022-10-28T11:16:50.205Z,2.70
2022-10-28T11:19:24.368Z,3.37
2022-10-28T11:22:05.497Z,3.47
2022-10-28T11:24:58.008Z,5.97
2022-10-28T11:27:39.573Z,3.47
2022-10-28T11:30:15.177Z,2.87
2022-10-28T11:33:08.441Z,2.80
2022-10-28T11:36:00.613Z,2.87
2022-10-28T11:38:57.890Z,2.47
2022-10-28T11:41:37.216Z,2.87
2022-10-28T11:44:10.132Z,3.73
2022-10-28T11:46:51.388Z,5.33
2022-10-28T11:49:39.974Z,2.97
2022-10-28T11:52:22.130Z,1.77
2022-10-28T11:55:00.223Z,2.40
2022-10-28T11:57:40.035Z,2.37
2022-10-28T12:00:33.656Z,2.40
2022-10-28T12:03:20.239Z,3.70
2022-10-28T12:05:53.793Z,2.20
2022-10-28T12:08:39.509Z,2.07
2022-10-28T12:11:22.509Z,4.07
2022-10-28T12:16:42.303Z,3.63
2022-10-28T12:19:18.077Z,2.37
2022-10-28T12:21:52.735Z,4.82
2022-10-28T12:24:24.990Z,6.43
2022-10-28T12:26:57.611Z,3.53
2022-10-28T12:29:30.083Z,5.22
2022-10-28T12:32:03.510Z,4.43
2022-10-28T12:37:17.193Z,3.20
2022-10-28T12:39:55.223Z,2.83
2022-10-28T12:42:29.048Z,2.92
2022-10-28T12:45:02.081Z,2.50
2022-10-28T12:47:43.172Z,3.45
2022-10-28T12:50:19.857Z,6.25
2022-10-28T12:52:57.028Z,2.70
2022-10-28T12:55:39.045Z,4.22
2022-10-28T12:58:15.479Z,3.65
2022-10-28T13:00:49.303Z,3.83
2022-10-28T13:03:18.973Z,3.20
2022-10-28T13:05:53.031Z,2.80
2022-10-28T13:08:41.788Z,2.45
2022-10-28T13:11:57.069Z,2.33
2022-10-28T13:14:42.433Z,2.10
2022-10-28T13:17:33.809Z,2.40
2022-10-28T13:20:15.898Z,2.92
2022-10-28T13:23:06.842Z,2.85
2022-10-28T13:25:58.841Z,3.08
2022-10-28T13:28:32.807Z,3.10
2022-10-28T13:31:03.536Z,2.17
2022-10-28T13:33:33.956Z,3.07
2022-10-28T13:36:18.064Z,3.30
2022-10-28T13:38:55.401Z,2.90
2022-10-28T13:41:35.759Z,3.33
2022-10-28T13:44:30.388Z,2.90
2022-10-28T13:47:27.979Z,2.60
2022-10-28T13:50:34.936Z,2.77
2022-10-28T13:53:43.741Z,2.63
2022-10-28T13:56:53.862Z,2.20
2022-10-28T13:59:29.324Z,1.80
2022-10-28T14:02:38.380Z,2.53
2022-10-28T14:05:09.463Z,2.60
2022-10-28T14:07:42.385Z,2.83
2022-10-28T14:10:24.062Z,3.00
2022-10-28T14:12:56.615Z,2.40
2022-10-28T14:15:28.396Z,2.43
2022-10-28T14:18:16.076Z,2.37
2022-10-28T14:21:01.792Z,3.53
2022-10-28T14:24:08.203Z,3.30
2022-10-28T14:27:09.443Z,3.00
2022-10-28T14:29:45.290Z,2.90
2022-10-28T14:32:50.375Z,3.00
2022-10-28T14:35:29.797Z,3.10
2022-10-28T14:38:25.255Z,1.90
2022-10-28T14:41:05.697Z,2.07
2022-10-28T14:43:48.916Z,2.10
2022-10-28T14:46:47.082Z,2.13
2022-10-28T14:49:22.252Z,2.60
2022-10-28T14:51:53.716Z,2.10
2022-10-28T14:54:29.710Z,2.10
2022-10-28T14:56:58.775Z,2.13
2022-10-28T14:59:32.771Z,2.10
2022-10-28T15:02:05.237Z,1.97
2022-10-28T15:04:34.803Z,2.40
2022-10-28T15:07:04.919Z,2.50
2022-10-28T15:09:36.336Z,2.37
2022-10-28T15:12:09.820Z,3.70
2022-10-28T15:14:41.060Z,3.50
2022-10-28T15:17:18.380Z,4.00
2022-10-28T15:19:48.189Z,3.77
2022-10-28T15:22:23.953Z,3.07
2022-10-28T15:25:01.067Z,3.10
2022-10-28T15:27:31.866Z,3.40
2022-10-28T15:30:01.028Z,2.93
2022-10-28T15:32:34.716Z,2.80
2022-10-28T15:35:38.225Z,3.43
2022-10-28T15:38:33.536Z,2.90
2022-10-28T15:41:02.364Z,2.77
2022-10-28T15:43:32.384Z,3.30
2022-10-28T15:46:12.107Z,3.07
2022-10-28T15:48:40.826Z,4.20
2022-10-28T15:51:13.975Z,4.90
2022-10-28T15:53:45.475Z,6.50
2022-10-28T15:56:25.001Z,4.60
2022-10-28T15:59:09.781Z,5.27
2022-10-28T16:01:40.280Z,4.60
2022-10-28T16:04:45.546Z,5.10
2022-10-28T16:07:14.382Z,4.17
2022-10-28T16:09:50.228Z,3.77
2022-10-28T16:12:22.130Z,5.03
2022-10-28T16:14:57.472Z,5.13
2022-10-28T16:17:27.728Z,4.70
2022-10-28T16:19:58.622Z,5.53
2022-10-28T16:22:29.640Z,6.13
2022-10-28T16:24:59.772Z,6.80
2022-10-28T16:27:32.328Z,6.53
2022-10-28T16:30:01.170Z,6.60
2022-10-28T16:32:35.869Z,4.23
2022-10-28T16:35:05.327Z,4.00
2022-10-28T16:37:38.318Z,3.90
2022-10-28T16:40:37.718Z,3.80
2022-10-28T16:43:01.760Z,5.10
2022-10-28T16:45:30.420Z,6.30
2022-10-28T16:47:59.113Z,7.47
2022-10-28T16:50:27.693Z,7.57
2022-10-28T16:52:57.324Z,5.03
2022-10-28T16:55:27.720Z,5.00
2022-10-28T16:57:56.772Z,4.70
2022-10-28T17:00:25.630Z,4.83
2022-10-28T17:02:55.936Z,8.13
2022-10-28T17:05:25.613Z,6.10
2022-10-28T17:07:56.422Z,6.60
2022-10-28T17:10:27.550Z,7.70
2022-10-28T17:12:56.758Z,7.20
2022-10-28T17:15:25.853Z,8.13
2022-10-28T17:17:54.732Z,7.47
2022-10-28T17:20:23.684Z,7.80
2022-10-28T17:22:52.762Z,8.13
2022-10-28T17:25:21.625Z,6.90
2022-10-28T17:27:53.377Z,7.63
2022-10-28T17:30:23.562Z,5.90
2022-10-28T17:32:53.605Z,8.10
2022-10-28T17:35:23.572Z,8.37
2022-10-28T17:37:52.663Z,5.90
2022-10-28T17:40:22.162Z,6.70
2022-10-28T17:42:52.432Z,6.93
2022-10-28T17:45:22.289Z,6.63
2022-10-28T17:47:51.611Z,7.10
2022-10-28T17:50:20.219Z,8.30
2022-10-28T17:52:48.908Z,7.23
2022-10-28T17:55:17.704Z,6.63
2022-10-28T17:57:46.826Z,7.83
2022-10-28T18:00:17.763Z,6.13
2022-10-28T18:02:46.586Z,6.97
2022-10-28T18:05:15.592Z,6.63
2022-10-28T18:07:44.223Z,6.10
2022-10-28T18:10:13.075Z,5.90
2022-10-28T18:12:41.763Z,5.83
2022-10-28T18:15:12.352Z,5.33
2022-10-28T18:17:42.493Z,5.57
2022-10-28T18:20:12.632Z,5.20
2022-10-28T18:22:41.278Z,4.63
2022-10-28T18:25:10.673Z,5.60
2022-10-28T18:27:39.341Z,7.23
2022-10-28T18:30:09.026Z,4.87
2022-10-28T18:32:37.695Z,4.67
2022-10-28T18:35:08.653Z,4.90
2022-10-28T18:37:38.169Z,9.90
2022-10-28T18:40:08.134Z,6.73
2022-10-28T18:42:36.790Z,4.83
2022-10-28T18:45:05.995Z,3.87
2022-10-28T18:47:36.065Z,4.90
2022-10-28T18:50:05.468Z,4.57
2022-10-28T18:52:35.634Z,5.03
2022-10-28T18:55:04.403Z,5.13
2022-10-28T18:57:33.025Z,5.50
2022-10-28T19:00:18.888Z,6.60
2022-10-28T19:02:48.652Z,4.67
2022-10-28T19:05:17.595Z,5.07
2022-10-28T19:07:47.723Z,4.93
2022-10-28T19:10:16.513Z,3.77
2022-10-28T19:12:46.948Z,4.40
2022-10-28T19:15:19.205Z,5.83
2022-10-28T19:17:47.891Z,4.07
2022-10-28T19:20:16.802Z,4.00
2022-10-28T19:22:47.003Z,4.40
2022-10-28T19:25:16.749Z,5.87
2022-10-28T19:27:45.437Z,4.10
2022-10-28T19:30:15.409Z,3.70
2022-10-28T19:32:44.751Z,8.40
2022-10-28T19:35:13.445Z,7.83
2022-10-28T19:37:42.063Z,6.20
2022-10-28T19:40:12.545Z,4.67
2022-10-28T19:42:41.351Z,4.60
2022-10-28T19:45:11.224Z,4.77
2022-10-28T19:47:39.995Z,6.00
2022-10-28T19:50:09.971Z,9.63
2022-10-28T19:52:39.451Z,2.90
2022-10-28T19:55:13.675Z,3.10
2022-10-28T19:57:46.604Z,4.03
2022-10-28T20:00:18.914Z,6.60
2022-10-28T20:02:48.967Z,5.37
2022-10-28T20:05:18.136Z,4.93
2022-10-28T20:07:46.785Z,7.47
2022-10-28T20:10:15.612Z,7.40
2022-10-28T20:12:45.678Z,6.77
2022-10-28T20:15:14.451Z,3.80
2022-10-28T20:17:43.113Z,5.70
2022-10-28T20:20:14.066Z,5.73
2022-10-28T20:22:42.817Z,4.87
2022-10-28T20:25:11.704Z,2.63
2022-10-28T20:27:41.195Z,3.60
2022-10-28T20:30:12.916Z,3.37
2022-10-28T20:32:41.613Z,2.90
2022-10-28T20:35:11.013Z,2.93
2022-10-28T20:37:39.677Z,3.53
2022-10-28T20:40:09.587Z,4.23
2022-10-28T20:42:38.427Z,2.93
2022-10-28T20:45:07.872Z,4.20
2022-10-28T20:47:37.918Z,3.20
2022-10-28T20:50:07.175Z,3.10
2022-10-28T20:52:35.848Z,3.10
2022-10-28T20:55:04.568Z,3.47
2022-10-28T20:57:33.983Z,2.87
2022-10-28T21:00:02.593Z,2.63
2022-10-28T21:02:31.232Z,2.63
2022-10-28T21:05:01.378Z,3.30
2022-10-28T21:07:32.534Z,2.67
2022-10-28T21:10:01.244Z,3.17
2022-10-28T21:12:29.936Z,4.40
2022-10-28T21:14:58.591Z,2.20
2022-10-28T21:17:27.301Z,2.23
2022-10-28T21:19:56.004Z,2.30
2022-10-28T21:22:27.074Z,2.37
2022-10-28T21:24:55.830Z,3.10
2022-10-28T21:27:24.476Z,2.40
2022-10-28T21:29:53.240Z,2.40
2022-10-28T21:32:21.949Z,3.73
2022-10-28T21:34:50.543Z,5.50
2022-10-28T21:37:19.562Z,5.00
2022-10-28T21:39:53.517Z,2.57
2022-10-28T21:42:23.788Z,5.13
2022-10-28T21:44:53.069Z,3.33
2022-10-28T21:47:21.736Z,3.43
2022-10-28T21:49:50.427Z,3.53
2022-10-28T21:52:19.356Z,3.77
2022-10-28T21:54:49.418Z,2.00
2022-10-28T21:57:18.030Z,2.10
2022-10-28T21:59:49.617Z,2.60
2022-10-28T22:02:18.700Z,2.17
2022-10-28T22:04:47.482Z,2.27
2022-10-28T22:07:16.336Z,6.20
2022-10-28T22:09:44.967Z,13.27
2022-10-28T22:12:15.200Z,2.70
2022-10-28T22:14:43.839Z,3.27
2022-10-28T22:17:12.487Z,4.27
2022-10-28T22:19:41.087Z,4.13
2022-10-28T22:22:09.725Z,4.30
2022-10-28T22:24:38.375Z,3.43
2022-10-28T22:27:06.981Z,3.70
2022-10-28T22:29:47.799Z,3.20
2022-10-28T22:32:16.503Z,3.00
2022-10-28T22:34:45.142Z,4.23
2022-10-28T22:37:13.811Z,2.60
2022-10-28T22:39:42.473Z,1.90
2022-10-28T22:42:11.128Z,2.87
2022-10-28T22:44:39.783Z,3.33
2022-10-28T22:47:10.140Z,2.60
2022-10-28T22:49:38.788Z,5.97
2022-10-28T22:52:07.509Z,3.30
2022-10-28T22:54:36.138Z,4.00
2022-10-28T22:57:04.837Z,3.00
2022-10-28T22:59:33.486Z,3.43
2022-10-28T23:02:03.468Z,4.20
2022-10-28T23:04:33.690Z,3.03
2022-10-28T23:07:02.345Z,2.43
2022-10-28T23:09:30.957Z,4.27
2022-10-28T23:11:59.739Z,2.97
2022-10-28T23:14:29.770Z,3.10
2022-10-28T23:16:59.922Z,5.83
2022-10-28T23:19:28.569Z,3.20
2022-10-28T23:21:58.680Z,3.07
2022-10-28T23:24:27.297Z,3.40
2022-10-28T23:26:55.946Z,3.37
2022-10-28T23:29:24.637Z,3.60
2022-10-28T23:31:53.315Z,3.63
2022-10-28T23:34:21.964Z,5.03
2022-10-28T23:36:54.214Z,3.40
2022-10-28T23:39:24.357Z,2.83
2022-10-28T23:41:53.039Z,3.30
2022-10-28T23:44:21.640Z,4.00
2022-10-28T23:46:50.347Z,3.80
2022-10-28T23:49:18.991Z,3.93
2022-10-28T23:51:47.640Z,2.50
2022-10-28T23:54:16.275Z,2.50
2022-10-28T23:56:46.321Z,2.23
2022-10-28T23:59:15.305Z,1.90
